Time;durP1;ratioP1;P1;durP2;ratioP2;P2;SDS_P1;SDS_P2;PMS_P1;PMS_P2;Temp;Humidity;BMP_temperature;BMP_pressure;BME280_temperature;BME280_humidity;BME280_pressure;Samples;Min_cycle;Max_cycle;Signal;HPM_P1;HPM_P2
2021/06/27 00:02:06;;;;;;;50.65;23.55;;;;;;;28.33;50.83;99218.09;5054822;28;20577;-75
2021/06/27 00:04:32;;;;;;;48.15;27.23;;;;;;;28.48;49.87;99223.44;5054904;28;20048;-74
2021/06/27 00:06:58;;;;;;;44.83;24.67;;;;;;;28.56;50.02;99230.47;5054943;28;20033;-74
2021/06/27 00:09:24;;;;;;;47.72;21.67;;;;;;;28.61;49.93;99227.16;5055055;28;20052;-74
2021/06/27 00:11:52;;;;;;;56.60;22.23;;;;;;;28.62;49.54;99217.47;5054826;28;20045;-74
2021/06/27 00:14:18;;;;;;;40.58;21.15;;;;;;;28.64;49.41;99226.25;5055079;28;20048;-74
2021/06/27 00:16:47;;;;;;;42.17;21.13;;;;;;;28.63;49.25;99221.06;5055050;28;20053;-74
2021/06/27 00:19:14;;;;;;;38.58;20.48;;;;;;;28.60;49.45;99228.34;5054717;28;20044;-74
2021/06/27 00:21:41;;;;;;;44.05;20.10;;;;;;;28.61;49.68;99220.72;5053285;28;20041;-74
2021/06/27 00:24:07;;;;;;;;;;;;;;;28.59;49.52;99221.16;5055066;28;20472;-74
2021/06/27 00:26:33;;;;;;;40.28;20.77;;;;;;;28.51;49.67;99214.91;5054846;28;20023;-74
2021/06/27 00:28:59;;;;;;;;;;;;;;;28.51;49.96;99217.72;5054830;28;20402;-74
2021/06/27 00:31:27;;;;;;;36.25;19.73;;;;;;;28.46;49.98;99217.44;5054748;28;19921;-74
2021/06/27 00:33:53;;;;;;;37.88;18.90;;;;;;;28.53;49.84;99215.25;5054600;28;20036;-74
2021/06/27 00:36:20;;;;;;;45.83;19.58;;;;;;;28.55;49.85;99212.03;5054251;28;20529;-74
2021/06/27 00:39:04;;;;;;;39.40;18.75;;;;;;;28.57;49.62;99220.78;5054081;28;20506;-74
2021/06/27 00:41:30;;;;;;;34.88;18.30;;;;;;;28.48;50.08;99218.59;5069642;28;20045;-74
2021/06/27 00:43:56;;;;;;;48.53;17.52;;;;;;;28.43;49.94;99221.13;5054240;28;20044;-74
2021/06/27 00:46:24;;;;;;;40.95;18.33;;;;;;;28.25;50.74;99210.28;5052840;28;20124;-74
2021/06/27 00:48:51;;;;;;;41.28;18.05;;;;;;;28.25;50.50;99218.72;5054372;28;20059;-74
2021/06/27 00:51:18;;;;;;;42.22;19.85;;;;;;;28.09;51.26;99216.63;5054058;28;20135;-74
2021/06/27 00:53:44;;;;;;;44.20;22.10;;;;;;;27.88;51.81;99217.88;5052722;28;20044;-74
2021/06/27 00:56:10;;;;;;;45.90;22.65;;;;;;;27.82;51.87;99216.81;5054106;28;20129;-74
2021/06/27 00:58:37;;;;;;;40.17;19.92;;;;;;;27.69;52.44;99213.81;5053909;28;20048;-74
2021/06/27 01:01:09;;;;;;;45.78;19.23;;;;;;;27.58;52.67;99218.84;5054156;28;20045;-74
2021/06/27 01:03:36;;;;;;;40.35;18.30;;;;;;;27.74;52.10;99218.13;5054134;28;20047;-74
2021/06/27 01:06:03;;;;;;;38.30;18.23;;;;;;;27.81;52.07;99220.81;5053735;28;20456;-74
2021/06/27 01:08:31;;;;;;;43.20;18.02;;;;;;;27.86;52.04;99217.53;5053747;28;20041;-74
2021/06/27 01:10:57;;;;;;;39.00;19.10;;;;;;;27.89;51.94;99227.09;5053640;28;20091;-74
2021/06/27 01:13:24;;;;;;;42.65;18.52;;;;;;;28.01;51.50;99232.06;5053737;28;20037;-74
2021/06/27 01:15:52;;;;;;;41.42;17.90;;;;;;;28.12;51.24;99231.84;5053567;28;20037;-74
2021/06/27 01:18:19;;;;;;;41.50;18.52;;;;;;;28.18;50.95;99230.91;5053814;28;20045;-74
2021/06/27 01:20:45;;;;;;;44.22;18.45;;;;;;;28.12;51.15;99226.22;5053747;28;20123;-74
2021/06/27 01:23:14;;;;;;;32.53;19.23;;;;;;;28.16;51.05;99222.09;5053721;28;20406;-74
2021/06/27 01:25:46;;;;;;;45.47;19.80;;;;;;;28.17;50.93;99220.88;5053686;28;20045;-74
2021/06/27 01:28:13;;;;;;;46.92;19.58;;;;;;;28.22;51.09;99231.59;5053696;28;20033;-74
2021/06/27 01:30:41;;;;;;;44.22;19.83;;;;;;;28.22;50.73;99228.78;5053580;28;20041;-74
2021/06/27 01:33:14;;;;;;;45.72;22.73;;;;;;;28.34;50.67;99228.13;5053286;28;20387;-74
2021/06/27 01:35:42;;;;;;;80.03;40.42;;;;;;;28.40;50.56;99222.78;5053475;28;20048;-75
2021/06/27 01:38:08;;;;;;;;;;;;;;;28.45;50.31;99221.50;5053630;28;20413;-75
2021/06/27 01:40:35;;;;;;;149.35;67.57;;;;;;;28.52;49.99;99224.94;5052904;28;19927;-74
2021/06/27 01:43:16;;;;;;;125.85;58.28;;;;;;;28.45;50.40;99218.69;5053404;28;20040;-74
2021/06/27 01:45:51;;;;;;;96.63;46.83;;;;;;;28.51;50.02;99217.72;5053131;28;20175;-74
2021/06/27 01:48:18;;;;;;;82.15;39.15;;;;;;;28.56;49.85;99219.22;5051713;28;20080;-74
2021/06/27 01:50:48;;;;;;;67.43;33.60;;;;;;;28.55;49.84;99218.44;5053180;28;20080;-75
2021/06/27 01:53:18;;;;;;;62.92;31.05;;;;;;;28.54;50.00;99216.03;5052872;28;20097;-75
2021/06/27 01:55:44;;;;;;;62.00;27.70;;;;;;;28.56;50.09;99211.56;5052783;28;20049;-75
2021/06/27 01:58:11;;;;;;;51.58;26.45;;;;;;;28.62;50.08;99214.66;5052681;28;20033;-74
2021/06/27 02:00:37;;;;;;;47.60;23.85;;;;;;;28.61;50.13;99207.47;5052956;28;20052;-74
2021/06/27 02:03:04;;;;;;;43.65;22.48;;;;;;;28.59;50.02;99212.72;5052974;28;20047;-74
2021/06/27 02:05:31;;;;;;;39.95;22.20;;;;;;;28.68;49.59;99203.69;5052156;28;20045;-74
2021/06/27 02:07:59;;;;;;;40.67;21.42;;;;;;;28.80;49.41;99217.81;5051363;28;20458;-74
2021/06/27 02:10:27;;;;;;;48.10;23.33;;;;;;;28.86;49.16;99212.47;5052520;28;20628;-75
2021/06/27 02:12:55;;;;;;;45.22;22.08;;;;;;;28.91;49.41;99206.31;5052794;28;20048;-74
2021/06/27 02:15:21;;;;;;;46.20;22.50;;;;;;;28.95;49.51;99206.22;5052667;28;20037;-74
2021/06/27 02:17:55;;;;;;;;;;;;;;;28.99;49.64;99195.66;5052826;28;20461;-74
2021/06/27 02:20:24;;;;;;;;;;;;;;;29.03;49.77;99202.00;5051590;28;19932;-74
2021/06/27 02:22:50;;;;;;;80.25;24.13;;;;;;;29.07;50.11;99202.72;5052250;28;19927;-74
2021/06/27 02:25:17;;;;;;;93.57;23.90;;;;;;;29.07;50.23;99201.91;5052349;28;20044;-74
2021/06/27 02:27:43;;;;;;;74.53;23.77;;;;;;;29.06;49.70;99203.94;5052271;28;20136;-74
2021/06/27 02:30:13;;;;;;;96.95;26.38;;;;;;;29.13;49.65;99205.78;5052200;28;20244;-74
2021/06/27 02:32:39;;;;;;;73.55;26.35;;;;;;;29.12;50.14;99221.88;5052530;28;20047;-74
2021/06/27 02:35:07;;;;;;;56.20;25.15;;;;;;;29.16;50.14;99219.75;5052102;28;20128;-74
2021/06/27 02:37:34;;;;;;;53.03;25.17;;;;;;;29.23;50.08;99221.59;5051971;28;20049;-74
2021/06/27 02:40:00;;;;;;;56.17;26.17;;;;;;;29.25;49.64;99208.66;5051931;28;20053;-74
2021/06/27 02:42:27;;;;;;;57.17;24.42;;;;;;;29.30;49.42;99217.81;5050960;28;20048;-74
2021/06/27 02:44:55;;;;;;;45.35;24.27;;;;;;;29.34;49.67;99221.31;5052145;28;20057;-74
2021/06/27 02:47:22;;;;;;;65.07;24.33;;;;;;;29.40;49.94;99222.34;5052215;28;20410;-74
2021/06/27 02:49:48;;;;;;;78.20;25.23;;;;;;;29.44;49.80;99220.25;5052134;28;20071;-74
2021/06/27 02:52:15;;;;;;;86.68;25.02;;;;;;;29.45;49.85;99214.16;5051889;28;20048;-74
2021/06/27 02:54:43;;;;;;;84.10;24.52;;;;;;;29.51;49.78;99225.69;5052052;28;20045;-74
2021/06/27 02:57:09;;;;;;;79.55;23.23;;;;;;;29.53;49.62;99228.84;5052118;28;20052;-74
2021/06/27 02:59:35;;;;;;;72.97;21.88;;;;;;;29.44;49.89;99220.25;5051956;28;20059;-74
2021/06/27 03:02:01;;;;;;;54.65;21.48;;;;;;;29.58;49.33;99233.16;5051604;28;20491;-74
2021/06/27 03:04:27;;;;;;;42.28;20.65;;;;;;;29.57;49.19;99235.19;5051705;28;20045;-74
2021/06/27 03:06:53;;;;;;;37.15;20.85;;;;;;;29.57;49.38;99235.19;5051886;28;20044;-74
2021/06/27 03:09:20;;;;;;;44.80;20.60;;;;;;;29.68;49.27;99240.56;5050363;28;20135;-74
2021/06/27 03:11:46;;;;;;;49.90;20.52;;;;;;;29.69;48.73;99228.81;5050381;28;20076;-74
2021/06/27 03:14:14;;;;;;;48.63;21.35;;;;;;;29.75;48.98;99231.88;5051494;28;20045;-74
2021/06/27 03:16:40;;;;;;;52.58;21.70;;;;;;;29.75;48.97;99217.81;5050790;28;20128;-74
2021/06/27 03:19:06;;;;;;;;;;;;;;;29.81;48.70;99230.13;5051944;28;20075;-74
2021/06/27 03:21:32;;;;;;;52.85;21.08;;;;;;;29.86;48.89;99223.13;5051710;28;19943;-74
2021/06/27 03:23:59;;;;;;;60.08;20.67;;;;;;;29.88;48.41;99224.25;5051452;28;20045;-74
2021/06/27 03:26:25;;;;;;;56.72;21.42;;;;;;;29.85;48.71;99227.19;5051413;28;20133;-74
2021/06/27 03:28:52;;;;;;;52.08;19.85;;;;;;;29.90;48.10;99232.25;5050531;28;20469;-74
2021/06/27 03:31:18;;;;;;;45.17;20.30;;;;;;;29.93;48.10;99225.72;5051468;28;20075;-74
2021/06/27 03:33:46;;;;;;;41.63;19.60;;;;;;;29.93;47.78;99232.19;5051706;28;20445;-74
2021/06/27 03:36:12;;;;;;;38.30;20.00;;;;;;;29.95;47.72;99226.88;5051365;28;20512;-74
2021/06/27 03:39:08;;;;;;;44.72;20.15;;;;;;;30.02;47.31;99225.09;5051145;28;20206;-74
2021/06/27 03:41:50;;;;;;;39.05;18.70;;;;;;;30.09;47.45;99224.88;5048825;28;20057;-74
2021/06/27 03:44:16;;;;;;;38.50;18.75;;;;;;;30.07;47.16;99214.06;5049078;28;20425;-74
2021/06/27 03:46:42;;;;;;;35.42;18.58;;;;;;;30.07;47.03;99211.25;5048984;28;20100;-74
2021/06/27 03:49:11;;;;;;;38.35;18.90;;;;;;;30.18;47.16;99225.81;5048896;28;20061;-74
2021/06/27 03:51:37;;;;;;;42.05;19.85;;;;;;;30.21;47.23;99231.81;5048979;28;20245;-74
2021/06/27 03:54:04;;;;;;;38.70;20.25;;;;;;;30.21;47.30;99226.16;5048940;28;20538;-74
2021/06/27 03:56:30;;;;;;;;;;;;;;;30.24;47.63;99237.34;5049256;28;20045;-74
2021/06/27 03:58:58;;;;;;;41.58;19.90;;;;;;;30.25;47.78;99226.84;5048842;28;20411;-75
2021/06/27 04:01:24;;;;;;;51.50;20.90;;;;;;;30.30;47.73;99229.09;5048725;28;20549;-74
2021/06/27 04:03:51;;;;;;;44.47;20.65;;;;;;;30.33;47.98;99229.00;5048867;28;20037;-74
2021/06/27 04:06:17;;;;;;;54.80;21.27;;;;;;;30.31;48.19;99227.88;5048847;28;20467;-74
2021/06/27 04:08:43;;;;;;;44.08;19.92;;;;;;;30.36;48.38;99235.75;5048817;28;20041;-74
2021/06/27 04:11:09;;;;;;;45.10;20.20;;;;;;;30.35;48.24;99231.38;5048731;28;20098;-75
2021/06/27 04:13:37;;;;;;;46.70;19.50;;;;;;;30.46;47.77;99228.22;5050888;28;20083;-74
2021/06/27 04:16:04;;;;;;;44.50;19.77;;;;;;;30.51;47.64;99225.63;5051270;28;20045;-74
2021/06/27 04:18:34;;;;;;;45.53;20.33;;;;;;;30.60;46.85;99231.38;5050101;28;20036;-74
2021/06/27 04:21:00;;;;;;;44.63;19.67;;;;;;;30.60;46.59;99225.75;5050909;28;20049;-74
2021/06/27 04:23:26;;;;;;;;;;;;;;;30.64;46.56;99229.22;5050158;28;20041;-74
2021/06/27 04:25:53;;;;;;;32.83;18.60;;;;;;;30.65;46.33;99227.19;5050929;28;20445;-74
2021/06/27 04:28:21;;;;;;;41.83;19.05;;;;;;;30.65;46.11;99222.34;5053866;28;20080;-74
2021/06/27 04:30:47;;;;;;;43.78;20.75;;;;;;;30.70;45.84;99221.00;5054522;28;20458;-75
2021/06/27 04:33:14;;;;;;;47.28;20.58;;;;;;;30.77;46.04;99229.25;5054336;28;20049;-74
2021/06/27 04:35:41;;;;;;;47.33;20.60;;;;;;;30.79;46.49;99229.56;5054923;28;20048;-74
2021/06/27 04:38:12;;;;;;;50.13;21.23;;;;;;;30.82;46.57;99227.88;5054264;28;20123;-75
2021/06/27 04:40:38;;;;;;;47.50;22.52;;;;;;;30.83;46.30;99221.81;5053960;28;20529;-74
2021/06/27 04:43:08;;;;;;;36.20;21.88;;;;;;;30.83;46.56;99218.19;5054293;28;20048;-74
2021/06/27 04:45:37;;;;;;;51.25;22.55;;;;;;;30.88;46.71;99228.91;5054407;28;20435;-74
2021/06/27 04:48:05;;;;;;;40.13;21.55;;;;;;;30.92;45.74;99226.75;5054071;28;20136;-75
2021/06/27 04:50:31;;;;;;;41.65;20.58;;;;;;;30.94;45.84;99237.59;5054388;28;20513;-75
2021/06/27 04:52:58;;;;;;;33.42;19.40;;;;;;;30.91;45.61;99228.00;5053946;28;20037;-75
2021/06/27 04:55:23;;;;;;;38.17;17.90;;;;;;;30.97;44.79;99216.94;5053967;28;20097;-75
2021/06/27 04:57:50;;;;;;;33.20;18.55;;;;;;;30.95;44.52;99227.88;5052622;28;20063;-74
2021/06/27 05:00:17;;;;;;;30.58;17.38;;;;;;;30.89;44.75;99210.72;5053809;28;20513;-75
2021/06/27 05:02:43;;;;;;;33.97;17.98;;;;;;;30.85;44.82;99210.03;5053777;28;20240;-74
2021/06/27 05:05:11;;;;;;;32.78;17.98;;;;;;;30.91;44.77;99215.91;5053993;28;20044;-75
2021/06/27 05:07:37;;;;;;;31.98;16.98;;;;;;;30.93;44.86;99207.75;5053822;28;20041;-74
2021/06/27 05:10:05;;;;;;;31.80;16.55;;;;;;;30.96;45.11;99213.31;5053722;28;20047;-75
2021/06/27 05:12:32;;;;;;;35.10;16.98;;;;;;;30.97;45.74;99220.53;5053681;28;20418;-76
2021/06/27 05:14:58;;;;;;;31.35;17.02;;;;;;;30.88;45.90;99203.50;5053669;28;20073;-75
2021/06/27 05:17:24;;;;;;;30.17;16.75;;;;;;;30.72;45.97;99209.25;5053899;28;20457;-75
2021/06/27 05:19:50;;;;;;;39.10;18.08;;;;;;;30.63;47.17;99207.91;5053853;28;20466;-75
2021/06/27 05:22:17;;;;;;;31.63;17.58;;;;;;;30.55;46.70;99206.53;5053492;28;20037;-75
2021/06/27 05:24:42;;;;;;;;;;;;;;;30.56;46.37;99204.50;5054281;28;20036;-75
2021/06/27 05:27:08;;;;;;;24.52;16.50;;;;;;;30.63;47.03;99207.91;5053442;28;19996;-76
2021/06/27 05:29:34;;;;;;;29.55;19.15;;;;;;;30.71;46.20;99202.81;5053454;28;20106;-76
2021/06/27 05:32:02;;;;;;;30.60;18.38;;;;;;;30.76;46.50;99210.75;5053567;28;20052;-76
2021/06/27 05:34:30;;;;;;;28.67;17.92;;;;;;;30.76;46.35;99209.91;5053755;28;20048;-76
2021/06/27 05:36:58;;;;;;;26.10;16.65;;;;;;;30.82;46.43;99219.41;5053195;28;20506;-76
2021/06/27 05:39:25;;;;;;;20.27;15.32;;;;;;;30.80;46.62;99207.81;5052156;28;20049;-76
2021/06/27 05:41:52;;;;;;;20.38;15.20;;;;;;;30.87;46.34;99218.84;5053104;28;20624;-76
2021/06/27 05:44:21;;;;;;;23.45;14.40;;;;;;;30.80;46.53;99219.09;5053117;28;20049;-76
2021/06/27 05:46:47;;;;;;;20.42;13.77;;;;;;;30.84;46.04;99216.94;5053389;28;20037;-76
2021/06/27 05:49:13;;;;;;;;;;;;;;;30.91;46.07;99208.22;5053392;28;20040;-76
2021/06/27 05:51:41;;;;;;;17.73;13.60;;;;;;;30.89;46.53;99190.94;5052981;28;19956;-76
2021/06/27 05:54:09;;;;;;;22.35;13.55;;;;;;;30.95;46.28;99191.16;5053330;28;20124;-82
2021/06/27 05:56:36;;;;;;;28.10;13.95;;;;;;;31.06;46.55;99203.69;5052784;28;20053;-76
2021/06/27 05:59:04;;;;;;;21.48;13.63;;;;;;;31.04;46.58;99203.34;5053094;28;20127;-76
2021/06/27 06:01:33;;;;;;;19.27;12.75;;;;;;;31.05;46.39;99198.47;5051516;28;20132;-78
2021/06/27 06:03:59;;;;;;;;;;;;;;;30.99;46.21;99195.44;5053394;28;20127;-77
2021/06/27 06:06:25;;;;;;;21.73;11.65;;;;;;;30.97;45.55;99195.13;5052501;28;20027;-77
2021/06/27 06:08:51;;;;;;;;;;;;;;;30.96;46.37;99195.56;5052879;28;20066;-77
2021/06/27 06:11:18;;;;;;;19.55;11.50;;;;;;;30.97;46.05;99197.94;5051323;28;19920;-76
2021/06/27 06:13:44;;;;;;;19.40;11.07;;;;;;;30.99;46.15;99195.44;5052506;28;20045;-76
2021/06/27 06:16:11;;;;;;;19.90;10.52;;;;;;;30.96;45.14;99187.91;5052747;28;20045;-77
2021/06/27 06:18:40;;;;;;;20.77;10.43;;;;;;;30.91;45.92;99184.88;5052726;28;20067;-77
2021/06/27 06:21:08;;;;;;;18.15;10.40;;;;;;;30.90;45.97;99186.91;5052599;28;20040;-77
2021/06/27 06:23:34;;;;;;;15.90;10.18;;;;;;;30.92;45.38;99192.88;5052618;28;20051;-77
2021/06/27 06:26:00;;;;;;;20.38;10.75;;;;;;;31.01;45.67;99192.19;5052630;28;20033;-76
2021/06/27 06:28:25;;;;;;;13.13;10.05;;;;;;;31.05;44.72;99190.81;5052312;28;20487;-76
2021/06/27 06:30:54;;;;;;;16.73;10.43;;;;;;;31.13;45.17;99182.88;5052229;28;20045;-77
2021/06/27 06:33:20;;;;;;;19.13;10.63;;;;;;;31.18;45.62;99182.28;5052199;28;20041;-76
2021/06/27 06:35:47;;;;;;;19.73;10.93;;;;;;;31.27;45.40;99187.25;5052148;28;20506;-77
2021/06/27 06:38:13;;;;;;;20.00;10.90;;;;;;;31.31;45.32;99179.44;5052185;28;20047;-77
2021/06/27 06:40:41;;;;;;;24.88;11.10;;;;;;;31.38;45.94;99182.03;5051963;28;20040;-76
2021/06/27 06:43:07;;;;;;;;;;;;;;;31.44;46.79;99185.06;5052469;28;20565;-76
2021/06/27 06:45:34;;;;;;;15.30;10.80;;;;;;;31.42;44.73;99176.25;5052214;28;19924;-76
2021/06/27 06:48:01;;;;;;;19.88;11.30;;;;;;;31.48;45.04;99183.66;5052187;28;20037;-76
2021/06/27 06:50:28;;;;;;;30.38;11.15;;;;;;;31.49;44.79;99176.78;5050617;28;20506;-77
2021/06/27 06:52:54;;;;;;;;;;;;;;;31.57;45.44;99185.78;5052543;28;20139;-76
2021/06/27 06:55:21;;;;;;;19.40;12.07;;;;;;;31.57;46.20;99180.91;5051847;28;19928;-77
2021/06/27 06:57:48;;;;;;;46.47;11.05;;;;;;;31.56;43.78;99172.91;5052057;28;20041;-77
2021/06/27 07:00:15;;;;;;;29.55;11.15;;;;;;;31.54;42.87;99184.66;5052006;28;20106;-77
2021/06/27 07:02:41;;;;;;;19.42;9.40;;;;;;;31.49;43.34;99178.81;5051628;28;20048;-77
2021/06/27 07:05:08;;;;;;;16.35;9.55;;;;;;;31.49;42.24;99181.63;5051908;28;20040;-76
2021/06/27 07:07:35;;;;;;;18.17;9.18;;;;;;;31.51;42.10;99184.78;5052206;28;20132;-76
2021/06/27 07:10:04;;;;;;;16.33;8.40;;;;;;;31.54;41.55;99181.84;5051681;28;20495;-76
2021/06/27 07:12:32;;;;;;;17.83;9.00;;;;;;;31.55;42.21;99183.41;5051629;28;20049;-77
2021/06/27 07:14:58;;;;;;;31.15;10.02;;;;;;;31.60;42.80;99187.69;5050466;28;20037;-77
2021/06/27 07:17:24;;;;;;;11.98;9.23;;;;;;;31.63;42.42;99183.16;5051898;28;20049;-77
2021/06/27 07:19:50;;;;;;;;;;;;;;;31.67;42.40;99181.00;5052250;28;20043;-77
2021/06/27 07:22:16;;;;;;;12.25;9.07;;;;;;;31.73;42.49;99188.41;5051446;28;19924;-77
2021/06/27 07:24:43;;;;;;;15.82;9.77;;;;;;;31.77;42.25;99191.88;5051436;28;20033;-76
2021/06/27 07:27:08;;;;;;;;;;;;;;;31.82;42.06;99188.47;5052179;28;20463;-76
2021/06/27 07:29:35;;;;;;;31.23;10.30;;;;;;;31.85;42.59;99180.31;5051441;28;19928;-77
2021/06/27 07:32:01;;;;;;;41.35;9.50;;;;;;;31.90;42.97;99185.41;5051684;28;20044;-76
2021/06/27 07:34:28;;;;;;;15.52;9.82;;;;;;;31.94;42.34;99177.56;5051601;28;20037;-76
2021/06/27 07:36:55;;;;;;;;;;;;;;;31.99;43.51;99180.59;5052035;28;20060;-77
2021/06/27 07:39:21;;;;;;;23.80;9.68;;;;;;;31.99;42.93;99183.44;5051089;28;19927;-77
2021/06/27 07:41:47;;;;;;;21.30;9.90;;;;;;;31.99;42.29;99179.81;5050190;28;20037;-77
2021/06/27 07:44:13;;;;;;;16.88;9.60;;;;;;;32.07;42.11;99185.97;5050353;28;20045;-76
2021/06/27 07:46:39;;;;;;;17.25;9.48;;;;;;;32.14;42.29;99188.53;5051579;28;20513;-77
2021/06/27 07:49:05;;;;;;;;;;;;;;;32.18;42.17;99189.94;5051988;28;20116;-77
2021/06/27 07:51:31;;;;;;;16.13;9.52;;;;;;;32.21;42.12;99185.41;5051514;28;20361;-77
2021/06/27 07:54:00;;;;;;;12.75;9.27;;;;;;;32.18;41.51;99187.13;5050355;28;20048;-76
2021/06/27 07:56:26;;;;;;;12.65;9.07;;;;;;;32.24;41.33;99185.25;5051407;28;20052;-76
2021/06/27 07:58:52;;;;;;;17.35;9.25;;;;;;;32.25;41.43;99186.03;5051141;28;20407;-76
2021/06/27 08:01:18;;;;;;;;;;;;;;;32.35;41.77;99193.34;5051519;28;20494;-76
2021/06/27 08:03:44;;;;;;;20.35;9.90;;;;;;;32.36;41.33;99186.44;5054572;28;19939;-77
2021/06/27 08:06:10;;;;;;;12.85;10.07;;;;;;;32.31;41.74;99180.59;5054987;28;20451;-77
2021/06/27 08:08:37;;;;;;;10.80;9.02;;;;;;;32.40;40.60;99189.13;5055135;28;20073;-77
2021/06/27 08:11:03;;;;;;;;;;;;;;;32.46;42.45;99185.25;5055555;28;20044;-76
2021/06/27 08:13:30;;;;;;;18.85;9.18;;;;;;;32.47;40.48;99175.47;5054805;28;19936;-77
2021/06/27 08:15:58;;;;;;;14.23;9.30;;;;;;;32.53;40.65;99184.16;5055040;28;20143;-76
2021/06/27 08:18:25;;;;;;;18.63;10.15;;;;;;;32.59;40.07;99181.50;5055004;28;20065;-77
2021/06/27 08:20:51;;;;;;;15.63;9.75;;;;;;;32.59;39.25;99184.34;5054918;28;20051;-77
2021/06/27 08:23:18;;;;;;;21.90;10.50;;;;;;;32.61;39.52;99179.00;5054553;28;20041;-76
2021/06/27 08:25:44;;;;;;;17.23;9.25;;;;;;;32.63;40.17;99176.50;5054573;28;20054;-77
2021/06/27 08:28:10;;;;;;;;;;;;;;;32.68;38.60;99184.34;5055037;28;20037;-76
2021/06/27 08:30:36;;;;;;;16.35;8.52;;;;;;;32.74;38.67;99180.44;5054382;28;20279;-76
2021/06/27 08:33:03;;;;;;;15.32;9.27;;;;;;;32.81;37.93;99176.53;5054483;28;20525;-76
2021/06/27 08:35:29;;;;;;;13.32;9.35;;;;;;;32.90;39.07;99184.25;5054693;28;20041;-76
2021/06/27 08:37:56;;;;;;;13.15;9.60;;;;;;;32.94;38.19;99177.16;5054568;28;20048;-77
2021/06/27 08:40:26;;;;;;;21.35;10.20;;;;;;;32.99;38.32;99172.97;5054169;28;20056;-76
2021/06/27 08:42:53;;;;;;;12.85;9.27;;;;;;;33.03;38.22;99172.81;5054389;28;20052;-77
2021/06/27 08:45:19;;;;;;;19.15;11.23;;;;;;;33.05;38.47;99173.94;5054278;28;20044;-76
2021/06/27 08:47:50;;;;;;;16.40;11.23;;;;;;;33.10;38.56;99178.19;5054172;28;20064;-76
2021/06/27 08:50:20;;;;;;;17.17;10.73;;;;;;;33.13;38.59;99163.84;5054439;28;20045;-77
2021/06/27 08:52:46;;;;;;;18.52;11.02;;;;;;;33.15;38.67;99163.41;5054093;28;20128;-77
2021/06/27 08:55:14;;;;;;;15.55;10.70;;;;;;;33.20;38.63;99160.72;5054012;28;20090;-77
2021/06/27 08:57:42;;;;;;;17.40;10.73;;;;;;;33.19;38.07;99155.53;5054285;28;20037;-77
2021/06/27 09:00:10;;;;;;;25.40;10.65;;;;;;;33.29;38.88;99159.94;5054169;28;20037;-77
2021/06/27 09:02:36;;;;;;;16.63;11.13;;;;;;;33.29;38.23;99159.94;5054074;28;20037;-76
2021/06/27 09:05:06;;;;;;;18.50;10.63;;;;;;;33.30;38.67;99161.50;5053779;28;20044;-77
2021/06/27 09:07:38;;;;;;;31.63;11.18;;;;;;;33.32;38.19;99161.81;5054090;28;20041;-76
2021/06/27 09:10:07;;;;;;;23.05;10.45;;;;;;;33.42;37.93;99162.59;5054135;28;20033;-77
2021/06/27 09:12:51;;;;;;;22.27;11.15;;;;;;;33.46;38.23;99157.56;5053887;28;20124;-76
2021/06/27 09:15:41;;;;;;;21.80;11.02;;;;;;;33.54;39.09;99155.22;5052981;28;20047;-81
2021/06/27 09:18:14;;;;;;;23.25;10.80;;;;;;;33.56;37.82;99155.53;5053948;28;20041;-76
2021/06/27 09:20:56;;;;;;;14.18;10.60;;;;;;;33.58;38.95;99159.47;5052519;28;20045;-76
2021/06/27 09:23:40;;;;;;;29.38;11.35;;;;;;;33.62;37.96;99160.09;5053655;28;20047;-77
2021/06/27 09:26:07;;;;;;;17.25;10.85;;;;;;;33.63;37.71;99147.47;5053809;28;20041;-77
2021/06/27 09:28:49;;;;;;;20.17;10.75;;;;;;;33.66;38.56;99162.75;5053458;28;20044;-77
2021/06/27 09:31:35;;;;;;;27.88;11.15;;;;;;;33.63;37.50;99158.81;5052184;28;20048;-76
2021/06/27 09:34:08;;;;;;;18.83;10.07;;;;;;;33.62;37.18;99148.75;5053649;28;20037;-77
2021/06/27 09:36:38;;;;;;;16.50;10.82;;;;;;;33.61;37.51;99152.03;5053324;28;20037;-77
2021/06/27 09:39:13;;;;;;;20.70;10.40;;;;;;;33.59;37.79;99146.88;5051969;28;20476;-77
2021/06/27 09:41:52;;;;;;;15.05;10.75;;;;;;;33.62;37.90;99137.41;5051953;28;20049;-77
2021/06/27 09:44:20;;;;;;;14.80;11.00;;;;;;;33.67;38.37;99141.63;5053422;28;20049;-77
2021/06/27 09:46:52;;;;;;;17.25;11.20;;;;;;;33.67;37.61;99139.59;5053239;28;20045;-77
2021/06/27 09:49:32;;;;;;;19.38;15.50;;;;;;;33.63;37.35;99138.19;5053229;28;20083;-77
2021/06/27 09:52:06;;;;;;;38.17;34.10;;;;;;;33.64;37.57;99136.91;5052882;28;20513;-77
2021/06/27 09:54:35;;;;;;;41.38;16.73;;;;;;;33.67;38.28;99133.91;5052969;28;20041;-77
2021/06/27 09:57:02;;;;;;;21.08;10.82;;;;;;;33.76;36.74;99129.50;5051600;28;20044;-77
2021/06/27 09:59:36;;;;;;;15.50;10.43;;;;;;;33.78;35.27;99124.94;5053040;28;20045;-77
2021/06/27 10:02:03;;;;;;;16.05;11.23;;;;;;;33.83;35.07;99129.94;5052569;28;20540;-77
2021/06/27 10:04:31;;;;;;;19.73;12.05;;;;;;;33.83;36.04;99132.78;5053096;28;20051;-76
2021/06/27 10:07:03;;;;;;;19.17;10.52;;;;;;;33.85;34.62;99120.97;5052317;28;20037;-76
2021/06/27 10:09:36;;;;;;;21.33;11.07;;;;;;;33.84;35.31;99120.19;5052344;28;20490;-78
2021/06/27 10:12:08;;;;;;;13.52;10.75;;;;;;;33.90;35.45;99118.25;5052638;28;20128;-77
2021/06/27 10:14:50;;;;;;;32.33;10.35;;;;;;;33.95;35.00;99122.53;5052153;28;20098;-77
2021/06/27 10:17:22;;;;;;;13.27;9.80;;;;;;;33.98;34.35;99113.06;5052591;28;20460;-77
2021/06/27 10:19:48;;;;;;;17.40;10.00;;;;;;;33.97;34.65;99116.34;5052459;28;20036;-75
2021/06/27 10:22:15;;;;;;;13.77;10.25;;;;;;;34.06;36.56;99124.88;5052550;28;20071;-76
2021/06/27 10:24:41;;;;;;;12.73;10.88;;;;;;;34.12;35.12;99123.72;5051708;28;20041;-77
2021/06/27 10:27:09;;;;;;;20.52;10.23;;;;;;;34.15;34.77;99124.84;5052248;28;20131;-77
2021/06/27 10:29:42;;;;;;;18.25;10.77;;;;;;;34.18;35.09;99118.19;5051904;28;20033;-76
2021/06/27 10:32:10;;;;;;;11.98;10.52;;;;;;;34.17;34.29;99113.00;5051133;28;20037;-77
2021/06/27 10:34:36;;;;;;;17.73;10.10;;;;;;;34.11;34.81;99107.22;5052414;28;20036;-77
2021/06/27 10:37:12;;;;;;;20.80;10.07;;;;;;;34.27;36.19;99121.00;5052153;28;20044;-76
2021/06/27 10:39:59;;;;;;;18.42;9.95;;;;;;;34.37;34.79;99110.38;5051859;28;20075;-77
2021/06/27 10:42:49;;;;;;;15.73;10.18;;;;;;;34.50;35.36;99116.59;5051988;28;20119;-76
2021/06/27 10:45:20;;;;;;;22.70;10.77;;;;;;;34.52;34.26;99104.81;5051985;28;20648;-77
2021/06/27 10:47:48;;;;;;;21.25;9.75;;;;;;;34.53;35.12;99107.16;5051998;28;20041;-77
2021/06/27 10:50:16;;;;;;;19.40;10.40;;;;;;;34.59;34.87;99099.53;5051819;28;20553;-76
2021/06/27 10:52:55;;;;;;;13.82;10.25;;;;;;;34.65;34.11;99102.50;5052146;28;20053;-76
2021/06/27 10:55:42;;;;;;;14.20;10.07;;;;;;;34.72;35.25;99096.47;5051882;28;20315;-76
2021/06/27 10:58:12;;;;;;;16.08;10.63;;;;;;;34.78;34.95;99099.44;5051802;28;20081;-77
2021/06/27 11:00:53;;;;;;;24.85;10.85;;;;;;;34.73;34.87;99097.25;5050547;28;20037;-76
2021/06/27 11:03:36;;;;;;;16.48;10.73;;;;;;;34.78;36.06;99094.53;5051808;28;20395;-77
2021/06/27 11:06:05;;;;;;;21.02;11.57;;;;;;;34.81;35.48;99073.69;5051994;28;20041;-77
2021/06/27 11:08:37;;;;;;;18.10;11.48;;;;;;;34.97;35.08;99085.88;5050564;28;20139;-77
2021/06/27 11:11:10;;;;;;;16.35;11.50;;;;;;;35.03;35.93;99081.09;5051923;28;20051;-82
2021/06/27 11:13:39;;;;;;;18.55;11.48;;;;;;;35.05;35.97;99079.34;5051610;28;20128;-76
2021/06/27 11:16:07;;;;;;;20.02;12.07;;;;;;;35.13;35.77;99073.28;5050638;28;20043;-77
2021/06/27 11:18:45;;;;;;;23.80;11.57;;;;;;;35.21;35.86;99065.94;5051515;28;20565;-76
2021/06/27 11:21:24;;;;;;;38.05;12.93;;;;;;;35.30;35.14;99069.50;5051796;28;20041;-77
2021/06/27 11:23:57;;;;;;;23.88;12.57;;;;;;;35.34;35.02;99066.44;5050629;28;20044;-76
2021/06/27 11:26:48;;;;;;;20.50;11.88;;;;;;;35.40;34.53;99063.69;5051435;28;20044;-77
2021/06/27 11:29:23;;;;;;;22.33;11.85;;;;;;;35.45;34.41;99065.88;5051490;28;20127;-77
2021/06/27 11:32:08;;;;;;;18.55;11.77;;;;;;;35.33;33.23;99035.66;5051438;28;20045;-77